createdAt,value
2018-08-06T00:01:06.750Z,101990.34
2018-08-06T00:03:35.727Z,101987.86
2018-08-06T00:06:04.688Z,101990.03
2018-08-06T00:08:33.761Z,101988.79
2018-08-06T00:11:02.683Z,101987.00
2018-08-06T00:13:31.567Z,101981.70
2018-08-06T00:16:00.455Z,101977.89
2018-08-06T00:18:34.756Z,101981.70
2018-08-06T00:21:09.159Z,101978.70
2018-08-06T00:23:38.083Z,101979.80
2018-08-06T00:26:07.013Z,101979.01
2018-08-06T00:28:41.349Z,101980.16
2018-08-06T00:31:15.785Z,101974.86
2018-08-06T00:33:44.703Z,101970.55
2018-08-06T00:36:13.623Z,101966.30
2018-08-06T00:38:42.515Z,101965.34
2018-08-06T00:41:11.469Z,101969.23
2018-08-06T00:43:40.392Z,101965.31
2018-08-06T00:46:09.279Z,101960.89
2018-08-06T00:48:38.231Z,101954.56
2018-08-06T00:51:07.155Z,101951.47
2018-08-06T00:53:36.167Z,101947.75
2018-08-06T00:56:05.159Z,101948.83
2018-08-06T00:58:34.077Z,101950.42
2018-08-06T01:01:02.991Z,101944.50
2018-08-06T01:03:31.909Z,101935.73
2018-08-06T01:06:00.819Z,101936.27
2018-08-06T01:08:29.730Z,101924.32
2018-08-06T01:10:58.643Z,101929.16
2018-08-06T01:13:27.534Z,101926.85
2018-08-06T01:15:56.437Z,101923.77
2018-08-06T01:18:25.368Z,101921.52
2018-08-06T01:20:54.294Z,101918.34
2018-08-06T01:23:23.175Z,101913.87
2018-08-06T01:25:52.127Z,101912.80
2018-08-06T01:28:21.035Z,101912.33
2018-08-06T01:30:50.006Z,101904.99
2018-08-06T01:33:18.914Z,101907.21
2018-08-06T01:35:47.804Z,101907.85
2018-08-06T01:38:16.763Z,101903.63
2018-08-06T01:40:45.672Z,101898.11
2018-08-06T01:43:14.555Z,101902.02
2018-08-06T01:45:43.478Z,101895.31
2018-08-06T01:48:12.371Z,101894.64
2018-08-06T01:50:41.328Z,101888.06
2018-08-06T01:53:10.309Z,101888.75
2018-08-06T01:55:39.254Z,101884.09
2018-08-06T01:58:08.141Z,101886.34
2018-08-06T02:00:42.673Z,101877.26
2018-08-06T02:03:11.567Z,101881.88
2018-08-06T02:05:42.341Z,101874.61
2018-08-06T02:08:11.275Z,101875.68
2018-08-06T02:10:40.232Z,101869.39
2018-08-06T02:13:09.323Z,101864.77
2018-08-06T02:15:38.302Z,101858.76
2018-08-06T02:18:07.249Z,101860.30
2018-08-06T02:20:36.120Z,101863.58
2018-08-06T02:23:05.046Z,101856.78
2018-08-06T02:25:33.990Z,101847.83
2018-08-06T02:28:02.929Z,101842.95
2018-08-06T02:30:31.860Z,101843.47
2018-08-06T02:33:00.807Z,101838.71
2018-08-06T02:35:29.912Z,101839.07
2018-08-06T02:37:58.781Z,101833.89
2018-08-06T02:40:27.774Z,101829.91
2018-08-06T02:42:56.685Z,101829.27
2018-08-06T02:45:25.603Z,101825.98
2018-08-06T02:47:54.517Z,101822.97
2018-08-06T02:50:23.449Z,101818.95
2018-08-06T02:52:52.403Z,101813.06
2018-08-06T02:55:21.311Z,101816.89
2018-08-06T02:57:50.291Z,101802.65
2018-08-06T03:00:19.172Z,101806.87
2018-08-06T03:02:55.020Z,101808.43
2018-08-06T03:05:23.915Z,101802.44
2018-08-06T03:07:52.828Z,101800.37
2018-08-06T03:10:21.777Z,101798.42
2018-08-06T03:12:50.820Z,101790.27
2018-08-06T03:15:19.746Z,101795.52
2018-08-06T03:17:49.359Z,101792.99
2018-08-06T03:20:18.332Z,101794.20
2018-08-06T03:22:47.199Z,101785.81
2018-08-06T03:25:16.800Z,101779.27
2018-08-06T03:27:45.979Z,101783.63
2018-08-06T03:30:16.419Z,101781.81
2018-08-06T03:32:46.443Z,101777.84
2018-08-06T03:35:15.349Z,101781.04
2018-08-06T03:37:44.302Z,101779.83
2018-08-06T03:40:18.801Z,101784.27
2018-08-06T03:42:47.665Z,101785.55
2018-08-06T03:45:16.582Z,101784.66
2018-08-06T03:47:45.474Z,101768.73
2018-08-06T03:50:14.703Z,101760.91
2018-08-06T03:52:43.980Z,101757.66
2018-08-06T03:55:13.026Z,101756.30
2018-08-06T03:57:42.205Z,101754.88
2018-08-06T04:00:13.416Z,101749.88
2018-08-06T04:02:42.855Z,101746.64
2018-08-06T04:05:12.883Z,101745.89
2018-08-06T04:07:41.937Z,101744.13
2018-08-06T04:10:12.829Z,101742.56
2018-08-06T04:12:42.017Z,101741.42
2018-08-06T04:15:11.720Z,101739.66
2018-08-06T04:17:46.130Z,101738.75
2018-08-06T04:20:20.520Z,101744.13
2018-08-06T04:22:49.478Z,101743.53
2018-08-06T04:25:18.420Z,101741.96
2018-08-06T04:27:47.374Z,101737.34
2018-08-06T04:30:16.642Z,101731.27
2018-08-06T04:32:46.550Z,101737.49
2018-08-06T04:35:15.740Z,101733.06
2018-08-06T04:37:45.344Z,101735.38
2018-08-06T04:40:14.554Z,101737.89
2018-08-06T04:42:49.014Z,101735.42
2018-08-06T04:45:18.012Z,101731.31
2018-08-06T04:47:46.942Z,101732.88
2018-08-06T04:50:15.895Z,101729.05
2018-08-06T04:52:45.880Z,101730.36
2018-08-06T04:55:15.677Z,101730.77
2018-08-06T04:57:44.550Z,101725.13
2018-08-06T05:00:14.701Z,101730.64
2018-08-06T05:02:44.097Z,101732.14
2018-08-06T05:05:13.010Z,101732.00
2018-08-06T05:07:41.902Z,101726.61
2018-08-06T05:10:10.862Z,101720.56
2018-08-06T05:12:39.861Z,101724.07
2018-08-06T05:15:08.826Z,101724.89
2018-08-06T05:17:37.726Z,101726.75
2018-08-06T05:20:06.691Z,101719.35
2018-08-06T05:22:35.619Z,101729.71
2018-08-06T05:25:05.132Z,101728.49
2018-08-06T05:27:34.092Z,101724.31
2018-08-06T05:30:03.055Z,101729.38
2018-08-06T05:32:31.999Z,101728.16
2018-08-06T05:35:00.893Z,101730.44
2018-08-06T05:37:29.826Z,101724.17
2018-08-06T05:39:58.793Z,101720.78
2018-08-06T05:42:27.680Z,101720.70
2018-08-06T05:44:56.567Z,101716.67
2018-08-06T05:47:25.536Z,101718.30
2018-08-06T05:49:54.446Z,101720.92
2018-08-06T05:52:23.400Z,101722.91
2018-08-06T05:54:57.852Z,101723.31
2018-08-06T05:57:26.755Z,101719.63
2018-08-06T05:59:55.634Z,101715.55
2018-08-06T06:02:24.554Z,101714.19
2018-08-06T06:04:53.456Z,101715.73
2018-08-06T06:07:22.424Z,101715.27
2018-08-06T06:09:51.392Z,101711.37
2018-08-06T06:12:20.287Z,101716.64
2018-08-06T06:14:49.197Z,101713.58
2018-08-06T06:17:18.150Z,101718.87
2018-08-06T06:19:47.109Z,101724.47
2018-08-06T06:22:15.972Z,101717.40
2018-08-06T06:24:44.877Z,101720.85
2018-08-06T06:27:13.808Z,101720.01
2018-08-06T06:29:42.724Z,101713.31
2018-08-06T06:32:11.699Z,101713.70
2018-08-06T06:34:40.718Z,101722.38
2018-08-06T06:37:09.647Z,101717.44
2018-08-06T06:39:38.597Z,101717.05
2018-08-06T06:42:07.555Z,101721.13
2018-08-06T06:44:36.462Z,101713.84
2018-08-06T06:47:05.454Z,101712.09
2018-08-06T06:49:34.366Z,101711.73
2018-08-06T06:52:03.264Z,101711.73
2018-08-06T06:54:32.352Z,101715.05
2018-08-06T06:57:01.180Z,101713.31
2018-08-06T06:59:30.218Z,101711.34
2018-08-06T07:01:59.202Z,101721.50
2018-08-06T07:04:29.042Z,101697.76
2018-08-06T07:06:58.009Z,101698.75
2018-08-06T07:09:26.859Z,101697.09
2018-08-06T07:11:55.795Z,101703.15
2018-08-06T07:14:25.810Z,101699.17
2018-08-06T07:16:54.807Z,101698.09
2018-08-06T07:19:23.714Z,101692.24
2018-08-06T07:21:52.741Z,101699.27
2018-08-06T07:24:21.735Z,101695.65
2018-08-06T07:26:50.738Z,101697.64
2018-08-06T07:29:19.600Z,101694.83
2018-08-06T07:31:48.566Z,101696.55
2018-08-06T07:34:17.459Z,101699.13
2018-08-06T07:36:46.382Z,101698.59
2018-08-06T07:39:15.262Z,101696.55
2018-08-06T07:41:44.220Z,101685.02
2018-08-06T07:44:13.165Z,101685.33
2018-08-06T07:46:42.215Z,101675.75
2018-08-06T07:49:11.184Z,101681.59
2018-08-06T07:51:40.114Z,101685.34
2018-08-06T07:54:09.036Z,101685.41
2018-08-06T07:56:38.119Z,101678.25
2018-08-06T07:59:07.010Z,101683.98
2018-08-06T08:01:35.892Z,101682.31
2018-08-06T08:04:05.399Z,101677.19
2018-08-06T08:06:34.331Z,101676.47
2018-08-06T08:09:03.400Z,101669.72
2018-08-06T08:11:32.406Z,101672.19
2018-08-06T08:14:01.336Z,101666.85
2018-08-06T08:16:30.305Z,101664.21
2018-08-06T08:18:59.222Z,101663.08
2018-08-06T08:21:28.160Z,101663.63
2018-08-06T08:23:57.070Z,101655.97
2018-08-06T08:26:26.268Z,101650.20
2018-08-06T08:28:55.297Z,101651.72
2018-08-06T08:31:24.274Z,101647.37
2018-08-06T08:33:53.428Z,101646.81
2018-08-06T08:36:22.523Z,101643.09
2018-08-06T08:38:51.452Z,101640.12
2018-08-06T08:41:20.449Z,101642.66
2018-08-06T08:43:49.918Z,101636.54
2018-08-06T08:46:18.938Z,101628.28
2018-08-06T08:48:47.897Z,101626.23
2018-08-06T08:51:16.849Z,101619.59
2018-08-06T08:53:45.755Z,101616.80
2018-08-06T08:56:14.654Z,101613.01
2018-08-06T08:58:43.740Z,101610.69
2018-08-06T09:01:12.655Z,101613.91
2018-08-06T09:03:41.599Z,101607.95
2018-08-06T09:06:10.544Z,101611.14
2018-08-06T09:08:39.487Z,101611.89
2018-08-06T09:11:08.482Z,101610.98
2018-08-06T09:13:37.497Z,101600.23
2018-08-06T09:16:06.685Z,101600.98
2018-08-06T09:18:35.697Z,101603.61
2018-08-06T09:21:04.704Z,101598.98
2018-08-06T09:23:33.599Z,101593.49
2018-08-06T09:26:02.595Z,101589.97
2018-08-06T09:28:31.660Z,101594.59
2018-08-06T09:31:00.640Z,101591.98
2018-08-06T09:33:29.541Z,101588.02
2018-08-06T09:35:58.599Z,101581.27
2018-08-06T09:38:27.525Z,101582.11
2018-08-06T09:40:56.469Z,101583.88
2018-08-06T09:43:25.416Z,101580.86
2018-08-06T09:45:54.336Z,101578.34
2018-08-06T09:48:23.243Z,101579.86
2018-08-06T09:50:52.331Z,101580.86
2018-08-06T09:53:21.288Z,101576.13
2018-08-06T09:55:50.172Z,101571.22
2018-08-06T09:58:19.096Z,101574.02
2018-08-06T10:00:53.440Z,101567.99
2018-08-06T10:03:22.523Z,101569.60
2018-08-06T10:05:51.690Z,101568.62
2018-08-06T10:08:20.465Z,101572.81
2018-08-06T10:10:49.469Z,101569.16
2018-08-06T10:13:18.528Z,101561.56
2018-08-06T10:15:47.404Z,101567.62
2018-08-06T10:18:16.331Z,101563.77
2018-08-06T10:20:45.266Z,101558.11
2018-08-06T10:23:14.214Z,101558.80
2018-08-06T10:25:43.140Z,101556.05
2018-08-06T10:28:12.215Z,101556.14
2018-08-06T10:30:41.336Z,101552.84
2018-08-06T10:33:10.214Z,101547.17
2018-08-06T10:35:39.142Z,101544.74
2018-08-06T10:38:14.572Z,101537.12
2018-08-06T10:40:43.476Z,101542.25
2018-08-06T10:43:12.400Z,101531.83
2018-08-06T10:45:41.418Z,101533.14
2018-08-06T10:48:10.354Z,101533.31
2018-08-06T10:50:40.797Z,101533.78
2018-08-06T10:53:09.743Z,101530.41
2018-08-06T10:55:38.807Z,101528.97
2018-08-06T10:58:07.799Z,101522.95
2018-08-06T11:00:36.848Z,101518.30
2018-08-06T11:03:05.961Z,101518.83
2018-08-06T11:05:34.855Z,101511.37
2018-08-06T11:08:03.743Z,101514.66
2018-08-06T11:10:32.688Z,101518.08
2018-08-06T11:13:01.596Z,101504.14
2018-08-06T11:15:30.565Z,101496.14
2018-08-06T11:17:59.471Z,101494.60
2018-08-06T11:20:28.488Z,101499.47
2018-08-06T11:22:57.313Z,101490.80
2018-08-06T11:25:26.231Z,101487.20
2018-08-06T11:27:55.207Z,101482.10
2018-08-06T11:30:24.414Z,101485.56
2018-08-06T11:32:54.551Z,101481.55
2018-08-06T11:35:24.566Z,101484.97
2018-08-06T11:37:53.577Z,101476.05
2018-08-06T11:40:22.479Z,101479.86
2018-08-06T11:42:51.433Z,101468.48
2018-08-06T11:45:21.604Z,101467.63
2018-08-06T11:47:50.641Z,101467.10
2018-08-06T11:50:19.836Z,101465.80
2018-08-06T11:52:49.279Z,101452.03
2018-08-06T11:55:18.171Z,101456.50
2018-08-06T11:57:47.167Z,101455.12
2018-08-06T12:00:18.965Z,101456.98
2018-08-06T12:02:47.887Z,101451.11
2018-08-06T12:05:17.133Z,101452.67
2018-08-06T12:07:46.198Z,101445.61
2018-08-06T12:10:17.943Z,101446.45
2018-08-06T12:12:47.716Z,101445.80
2018-08-06T12:15:16.707Z,101441.17
2018-08-06T12:17:45.879Z,101442.31
2018-08-06T12:20:17.034Z,101436.48
2018-08-06T12:22:47.077Z,101446.23
2018-08-06T12:25:16.741Z,101439.55
2018-08-06T12:27:46.478Z,101432.38
2018-08-06T12:30:17.535Z,101434.89
2018-08-06T12:32:47.291Z,101434.55
2018-08-06T12:35:16.752Z,101435.64
2018-08-06T12:37:46.363Z,101437.70
2018-08-06T12:40:18.425Z,101430.84
2018-08-06T12:42:47.358Z,101423.79
2018-08-06T12:45:17.008Z,101426.37
2018-08-06T12:47:46.501Z,101429.31
2018-08-06T12:50:16.335Z,101425.07
2018-08-06T12:52:45.468Z,101423.09
2018-08-06T12:55:15.957Z,101421.42
2018-08-06T12:57:46.395Z,101414.67
2018-08-06T13:00:21.969Z,101424.14
2018-08-06T13:02:51.427Z,101421.88
2018-08-06T13:05:21.150Z,101409.44
2018-08-06T13:07:50.054Z,101413.39
2018-08-06T13:10:18.943Z,101411.42
2018-08-06T13:12:47.839Z,101407.41
2018-08-06T13:15:17.343Z,101406.94
2018-08-06T13:17:46.304Z,101405.81
2018-08-06T13:20:15.292Z,101410.86
2018-08-06T13:22:44.219Z,101402.50
2018-08-06T13:25:13.453Z,101397.06
2018-08-06T13:27:42.395Z,101398.28
2018-08-06T13:30:13.520Z,101394.25
2018-08-06T13:32:43.173Z,101398.88
2018-08-06T13:35:13.063Z,101384.95
2018-08-06T13:37:41.959Z,101392.83
2018-08-06T13:40:12.326Z,101382.07
2018-08-06T13:42:41.246Z,101372.37
2018-08-06T13:45:12.439Z,101376.81
2018-08-06T13:47:41.527Z,101382.73
2018-08-06T13:50:11.184Z,101374.92
2018-08-06T13:52:40.152Z,101377.66
2018-08-06T13:55:10.747Z,101372.41
2018-08-06T13:57:40.004Z,101366.63
2018-08-06T14:00:11.952Z,101367.53
2018-08-06T14:02:40.835Z,101359.42
2018-08-06T14:05:11.347Z,101359.56
2018-08-06T14:07:40.280Z,101362.20
2018-08-06T14:10:10.024Z,101360.81
2018-08-06T14:12:39.371Z,101361.92
2018-08-06T14:15:09.835Z,101359.56
2018-08-06T14:17:39.591Z,101359.83
2018-08-06T14:20:11.911Z,101350.09
2018-08-06T14:22:40.885Z,101349.36
2018-08-06T14:25:10.623Z,101346.55
2018-08-06T14:27:39.682Z,101352.77
2018-08-06T14:30:12.730Z,101353.12
2018-08-06T14:32:42.135Z,101346.00
2018-08-06T14:35:11.637Z,101347.56
2018-08-06T14:37:40.682Z,101350.61
2018-08-06T14:40:13.356Z,101350.80
2018-08-06T14:42:42.497Z,101349.42
2018-08-06T14:45:11.727Z,101341.66
2018-08-06T14:47:40.648Z,101348.86
2018-08-06T14:50:11.223Z,101344.80
2018-08-06T14:52:40.175Z,101349.11
2018-08-06T14:55:09.167Z,101344.98
2018-08-06T14:57:40.340Z,101340.18
2018-08-06T15:00:14.603Z,101337.52
2018-08-06T15:02:43.585Z,101337.85
2018-08-06T15:05:12.550Z,101341.83
2018-08-06T15:07:41.524Z,101346.19
2018-08-06T15:10:11.844Z,101342.09
2018-08-06T15:25:40.789Z,101326.52
2018-08-06T15:28:09.721Z,101330.57
2018-08-06T15:30:38.813Z,101328.48
2018-08-06T15:33:07.782Z,101325.64
2018-08-06T15:35:36.743Z,101320.39
2018-08-06T15:38:06.185Z,101315.95
2018-08-06T15:40:35.252Z,101309.05
2018-08-06T15:43:04.388Z,101311.06
2018-08-06T15:45:33.457Z,101302.25
2018-08-06T15:48:02.357Z,101295.63
2018-08-06T15:50:31.217Z,101296.07
2018-08-06T15:53:00.112Z,101302.52
2018-08-06T15:55:29.024Z,101302.34
2018-08-06T15:57:57.986Z,101293.19
2018-08-06T16:00:26.937Z,101292.73
2018-08-06T16:02:55.906Z,101288.30
2018-08-06T16:05:25.316Z,101282.86
2018-08-06T16:07:54.244Z,101288.17
2018-08-06T16:10:23.150Z,101281.59
2018-08-06T16:12:52.058Z,101273.14
2018-08-06T16:15:20.946Z,101285.85
2018-08-06T16:17:49.857Z,101283.84
2018-08-06T16:20:19.178Z,101291.80
2018-08-06T16:22:48.102Z,101274.77
2018-08-06T16:25:17.237Z,101273.84
2018-08-06T16:27:46.176Z,101281.27
2018-08-06T16:30:16.730Z,101270.96
2018-08-06T16:32:46.834Z,101272.69
2018-08-06T16:35:16.918Z,101273.59
2018-08-06T16:37:46.228Z,101270.82
2018-08-06T16:40:15.396Z,101259.94
2018-08-06T16:42:44.456Z,101270.24
2018-08-06T16:45:13.424Z,101271.63
2018-08-06T16:47:44.481Z,101260.73
2018-08-06T16:50:14.977Z,101262.74
2018-08-06T16:52:44.385Z,101258.92
2018-08-06T16:55:13.328Z,101260.25
2018-08-06T16:57:42.556Z,101256.77
2018-08-06T17:00:17.999Z,101260.64
2018-08-06T17:02:47.382Z,101258.06
2018-08-06T17:05:16.470Z,101254.48
2018-08-06T17:07:46.688Z,101258.78
2018-08-06T17:10:17.526Z,101246.70
2018-08-06T17:12:48.063Z,101254.97
2018-08-06T17:15:19.150Z,101252.26
2018-08-06T17:17:48.913Z,101249.33
2018-08-06T17:20:19.998Z,101249.45
2018-08-06T17:22:49.893Z,101250.87
2018-08-06T17:25:19.244Z,101251.84
2018-08-06T17:27:48.426Z,101261.13
2018-08-06T17:30:18.104Z,101250.19
2018-08-06T17:32:47.115Z,101252.97
2018-08-06T17:35:18.261Z,101253.25
2018-08-06T17:37:48.447Z,101254.31
2018-08-06T17:40:18.899Z,101248.09
2018-08-06T17:42:48.664Z,101248.56
2018-08-06T17:45:23.248Z,101251.56
2018-08-06T17:47:52.376Z,101257.63
2018-08-06T17:50:22.544Z,101255.30
2018-08-06T17:52:52.445Z,101252.19
2018-08-06T17:55:22.547Z,101252.08
2018-08-06T17:57:51.551Z,101250.69
2018-08-06T18:00:21.150Z,101247.59
2018-08-06T18:02:50.123Z,101242.47
2018-08-06T18:05:19.519Z,101244.66
2018-08-06T18:07:48.728Z,101241.94
2018-08-06T18:10:18.192Z,101243.81
2018-08-06T18:12:47.730Z,101243.17
2018-08-06T18:15:16.756Z,101242.47
2018-08-06T18:17:45.774Z,101232.52
2018-08-06T18:20:17.020Z,101239.04
2018-08-06T18:22:46.068Z,101235.17
2018-08-06T18:25:17.339Z,101231.16
2018-08-06T18:27:47.347Z,101234.79
2018-08-06T18:30:18.017Z,101230.23
2018-08-06T18:32:48.091Z,101231.45
2018-08-06T18:35:18.222Z,101233.37
2018-08-06T18:37:47.578Z,101240.27
2018-08-06T18:40:18.115Z,101239.26
2018-08-06T18:42:47.194Z,101243.23
2018-08-06T18:45:18.388Z,101244.45
2018-08-06T18:47:48.716Z,101239.98
2018-08-06T18:50:18.616Z,101241.17
2018-08-06T18:52:48.768Z,101239.30
2018-08-06T18:55:18.946Z,101242.04
2018-08-06T18:57:48.291Z,101242.75
2018-08-06T19:00:24.082Z,101244.45
2018-08-06T19:02:56.596Z,101243.41
2018-08-06T19:05:28.758Z,101240.34
2018-08-06T19:07:58.417Z,101243.42
2018-08-06T19:10:27.708Z,101243.09
2018-08-06T19:13:03.363Z,101245.66
2018-08-06T19:15:42.684Z,101249.59
2018-08-06T19:18:17.238Z,101251.11
2018-08-06T19:20:46.704Z,101257.13
2018-08-06T19:23:15.808Z,101260.03
2018-08-06T19:25:45.026Z,101249.25
2018-08-06T19:28:14.210Z,101250.95
2018-08-06T19:30:48.942Z,101256.08
2018-08-06T19:33:18.162Z,101249.55
2018-08-06T19:35:47.262Z,101248.34
2018-08-06T19:38:16.845Z,101249.19
2018-08-06T19:40:45.912Z,101251.58
2018-08-06T19:43:20.284Z,101254.67
2018-08-06T19:45:49.476Z,101259.80
2018-08-06T19:48:18.696Z,101260.97
2018-08-06T19:50:47.852Z,101262.55
2018-08-06T19:53:17.540Z,101256.38
2018-08-06T19:55:51.860Z,101254.68
2018-08-06T19:58:21.028Z,101259.81
2018-08-06T20:00:50.101Z,101260.16
2018-08-06T20:03:19.145Z,101260.16
2018-08-06T20:05:48.398Z,101266.09
2018-08-06T20:08:17.476Z,101266.58
2018-08-06T20:10:47.087Z,101267.27
2018-08-06T20:13:16.099Z,101258.29
2018-08-06T20:15:45.328Z,101262.03
2018-08-06T20:18:14.804Z,101259.80
2018-08-06T20:20:43.948Z,101262.69
2018-08-06T20:23:15.109Z,101258.21
2018-08-06T20:25:44.204Z,101261.33
2018-08-06T20:28:13.236Z,101263.44
2018-08-06T20:30:42.363Z,101254.64
2018-08-06T20:33:11.540Z,101260.27
2018-08-06T20:35:40.623Z,101259.27
2018-08-06T20:38:09.709Z,101256.69
2018-08-06T20:40:38.834Z,101252.72
2018-08-06T20:43:07.836Z,101253.42
2018-08-06T20:45:36.856Z,101244.80
2018-08-06T20:48:06.289Z,101250.34
2018-08-06T20:50:35.559Z,101243.98
2018-08-06T20:53:04.786Z,101247.40
2018-08-06T20:55:33.806Z,101252.03
2018-08-06T20:58:02.847Z,101244.17
2018-08-06T21:00:31.920Z,101246.55
2018-08-06T21:03:01.193Z,101246.93
2018-08-06T21:05:30.337Z,101244.35
2018-08-06T21:07:59.435Z,101247.61
2018-08-06T21:10:28.507Z,101244.02
2018-08-06T21:12:57.700Z,101242.97
2018-08-06T21:15:26.890Z,101237.64
2018-08-06T21:17:56.068Z,101239.84
2018-08-06T21:20:25.289Z,101237.25
2018-08-06T21:22:54.379Z,101240.66
2018-08-06T21:25:23.406Z,101232.59
2018-08-06T21:27:52.544Z,101229.75
2018-08-06T21:30:22.150Z,101230.69
2018-08-06T21:32:53.762Z,101231.94
2018-08-06T21:35:24.167Z,101230.95
2018-08-06T21:37:54.888Z,101230.05
2018-08-06T21:40:24.734Z,101225.38
2018-08-06T21:42:53.893Z,101229.31
2018-08-06T21:45:22.944Z,101223.48
2018-08-06T21:47:52.040Z,101221.24
2018-08-06T21:50:21.177Z,101221.02
2018-08-06T21:52:50.237Z,101212.66
2018-08-06T21:55:19.295Z,101218.83
2018-08-06T21:57:48.303Z,101221.95
2018-08-06T22:00:34.489Z,101219.21
2018-08-06T22:03:04.902Z,101213.35
2018-08-06T22:05:34.094Z,101218.64
2018-08-06T22:08:03.413Z,101216.34
2018-08-06T22:10:32.691Z,101211.83
2018-08-06T22:13:01.871Z,101214.07
2018-08-06T22:15:31.327Z,101217.64
2018-08-06T22:18:00.419Z,101209.81
2018-08-06T22:20:29.485Z,101213.59
2018-08-06T22:22:58.515Z,101210.71
2018-08-06T22:25:27.599Z,101211.95
2018-08-06T22:27:56.742Z,101209.29
2018-08-06T22:30:25.970Z,101211.08
2018-08-06T22:32:55.180Z,101208.69
2018-08-06T22:35:24.406Z,101207.29
2018-08-06T22:37:53.583Z,101203.88
2018-08-06T22:40:22.542Z,101202.53
2018-08-06T22:42:51.574Z,101200.85
2018-08-06T22:45:20.506Z,101201.47
2018-08-06T22:47:49.524Z,101202.09
2018-08-06T22:50:18.480Z,101197.11
2018-08-06T22:52:47.528Z,101186.67
2018-08-06T22:55:16.551Z,101196.20
2018-08-06T22:57:45.614Z,101186.25
2018-08-06T23:00:17.065Z,101185.50
2018-08-06T23:02:46.256Z,101183.47
2018-08-06T23:05:16.724Z,101186.78
2018-08-06T23:07:45.831Z,101188.43
2018-08-06T23:10:16.799Z,101180.73
2018-08-06T23:12:46.004Z,101175.63
2018-08-06T23:15:16.249Z,101176.31
2018-08-06T23:17:45.819Z,101170.33
2018-08-06T23:20:16.112Z,101170.62
2018-08-06T23:22:45.377Z,101168.05
2018-08-06T23:25:14.403Z,101162.13
2018-08-06T23:27:44.441Z,101163.25
2018-08-06T23:30:14.857Z,101162.68
2018-08-06T23:32:43.889Z,101165.53
2018-08-06T23:35:13.983Z,101158.72
2018-08-06T23:37:44.253Z,101158.81
2018-08-06T23:40:15.143Z,101158.75
2018-08-06T23:42:44.403Z,101158.75
2018-08-06T23:45:14.348Z,101155.28
2018-08-06T23:47:43.232Z,101160.84
2018-08-06T23:50:14.079Z,101157.98
2018-08-06T23:52:45.047Z,101151.28
2018-08-06T23:55:16.646Z,101154.68
2018-08-06T23:57:45.649Z,101152.37
